createdAt,value
2019-01-05T00:00:05.913Z,-6
2019-01-05T00:00:55.981Z,-6
2019-01-05T00:01:46.309Z,-6
2019-01-05T00:02:36.372Z,-6
2019-01-05T00:03:26.153Z,-6
2019-01-05T00:04:15.933Z,-6
2019-01-05T00:05:06.259Z,-6
2019-01-05T00:05:56.335Z,-6
2019-01-05T00:06:46.656Z,-6
2019-01-05T00:07:36.711Z,-6
2019-01-05T00:08:26.764Z,-6
2019-01-05T00:09:16.833Z,-6
2019-01-05T00:10:07.123Z,-6
2019-01-05T00:10:56.378Z,-6
2019-01-05T00:11:46.454Z,-6
2019-01-05T00:12:37.051Z,-6.1
2019-01-05T00:13:26.828Z,-6.1
2019-01-05T00:14:16.618Z,-6.1
2019-01-05T00:15:07.193Z,-6
2019-01-05T00:33:20.940Z,-6.1
2019-01-05T00:34:10.717Z,-6.1
2019-01-05T00:35:01.123Z,-6.1
2019-01-05T00:35:50.787Z,-6.1
2019-01-05T00:36:41.111Z,-6.1
2019-01-05T00:37:30.927Z,-6.1
2019-01-05T00:38:21.262Z,-6.1
2019-01-05T00:39:11.049Z,-6.1
2019-01-05T00:40:01.097Z,-6.1
2019-01-05T00:40:51.146Z,-6.1
2019-01-05T00:41:41.206Z,-6.1
2019-01-05T00:42:31.536Z,-6.1
2019-01-05T00:43:21.329Z,-6.1
2019-01-05T00:44:11.376Z,-6.1
2019-01-05T00:45:01.706Z,-6.1
2019-01-05T00:45:51.465Z,-6.1
2019-01-05T00:46:41.277Z,-6.1
2019-01-05T00:47:31.324Z,-6.1
2019-01-05T00:48:21.658Z,-6.1
2019-01-05T00:49:11.973Z,-6.1
2019-01-05T00:50:02.050Z,-6.1
2019-01-05T00:50:51.826Z,-6.1
2019-01-05T00:51:42.156Z,-6.1
2019-01-05T00:52:32.210Z,-6.1
2019-01-05T00:53:22.281Z,-6.1
2019-01-05T00:54:12.323Z,-6.1
2019-01-05T00:55:02.119Z,-6.1
2019-01-05T00:55:52.448Z,-6.1
2019-01-05T00:56:42.472Z,-6.1
2019-01-05T00:57:32.548Z,-6.1
2019-01-05T00:58:22.613Z,-6.1
2019-01-05T00:59:12.392Z,-6.1
2019-01-05T01:00:02.185Z,-6.1
2019-01-05T01:00:52.777Z,-6.1
2019-01-05T01:01:42.843Z,-6.1
2019-01-05T01:02:32.930Z,-6.1
2019-01-05T01:03:22.134Z,-6.1
2019-01-05T01:04:12.980Z,-6.1
2019-01-05T01:05:02.244Z,-6.1
2019-01-05T01:05:52.569Z,-6.1
2019-01-05T01:06:42.920Z,-6.1
2019-01-05T01:07:33.243Z,-6.1
2019-01-05T01:08:22.740Z,-6.1
2019-01-05T01:09:13.372Z,-6.1
2019-01-05T01:10:03.434Z,-6.1
2019-01-05T01:10:53.454Z,-6.2
2019-01-05T01:11:43.519Z,-6.2
2019-01-05T01:12:33.022Z,-6.2
2019-01-05T01:13:23.634Z,-6.2
2019-01-05T01:14:13.687Z,-6.2
2019-01-05T01:15:03.726Z,-6.1
2019-01-05T01:15:53.807Z,-6.2
2019-01-05T01:16:43.582Z,-6.2
2019-01-05T01:17:33.654Z,-6.2
2019-01-05T01:18:23.979Z,-6.2
2019-01-05T01:19:14.031Z,-6.2
2019-01-05T01:20:04.163Z,-6.2
2019-01-05T01:20:54.144Z,-6.2
2019-01-05T01:21:44.199Z,-6.1
2019-01-05T01:22:34.261Z,-6.2
2019-01-05T01:23:24.305Z,-6.2
2019-01-05T01:24:14.099Z,-6.2
2019-01-05T01:25:04.736Z,-6.2
2019-01-05T01:25:53.666Z,-6.2
2019-01-05T01:26:44.536Z,-6.2
2019-01-05T01:27:34.601Z,-6.2
2019-01-05T01:28:24.426Z,-6.2
2019-01-05T01:29:14.438Z,-6.2
2019-01-05T01:30:04.778Z,-6.2
2019-01-05T01:30:54.553Z,-6.2
2019-01-05T01:31:44.906Z,-6.2
2019-01-05T01:32:34.952Z,-6.2
2019-01-05T01:33:24.996Z,-6.2
2019-01-05T01:34:14.773Z,-6.2
2019-01-05T01:35:05.111Z,-6.2
2019-01-05T01:35:54.917Z,-6.2
2019-01-05T01:36:44.942Z,-6.2
2019-01-05T01:37:34.726Z,-6.2
2019-01-05T01:38:24.504Z,-6.2
2019-01-05T01:39:15.388Z,-6.2
2019-01-05T01:40:05.183Z,-6.2
2019-01-05T01:40:55.500Z,-6.2
2019-01-05T01:41:45.558Z,-6.2
2019-01-05T01:42:35.337Z,-6.2
2019-01-05T01:43:25.685Z,-6.2
2019-01-05T01:44:15.771Z,-6.2
2019-01-05T01:45:05.525Z,-6.2
2019-01-05T01:45:55.567Z,-6.2
2019-01-05T01:46:45.622Z,-6.2
2019-01-05T01:47:35.677Z,-6.2
2019-01-05T01:48:26.015Z,-6.2
2019-01-05T01:49:16.075Z,-6.2
2019-01-05T01:50:05.852Z,-6.2
2019-01-05T01:50:56.180Z,-6.2
2019-01-05T01:51:45.689Z,-6.3
2019-01-05T01:52:36.062Z,-6.2
2019-01-05T01:53:26.350Z,-6.2
2019-01-05T01:54:16.137Z,-6.2
2019-01-05T01:55:06.467Z,-6.3
2019-01-05T01:55:56.244Z,-6.3
2019-01-05T01:56:46.574Z,-6.3
2019-01-05T01:57:35.807Z,-6.3
2019-01-05T01:58:26.697Z,-6.2
2019-01-05T01:59:16.477Z,-6.3
2019-01-05T02:00:06.807Z,-6.3
2019-01-05T02:00:56.597Z,-6.3
2019-01-05T02:01:46.654Z,-6.3
2019-01-05T02:02:36.706Z,-6.3
2019-01-05T02:03:27.025Z,-6.3
2019-01-05T02:04:16.537Z,-6.3
2019-01-05T02:05:07.156Z,-6.3
2019-01-05T02:05:57.206Z,-6.3
2019-01-05T02:06:47.261Z,-6.3
2019-01-05T02:07:37.044Z,-6.3
2019-01-05T02:08:27.369Z,-6.3
2019-01-05T02:09:17.205Z,-6.3
2019-01-05T02:10:06.947Z,-6.3
2019-01-05T02:10:57.546Z,-6.3
2019-01-05T02:11:47.323Z,-6.3
2019-01-05T02:12:37.648Z,-6.3
2019-01-05T02:13:27.715Z,-6.3
2019-01-05T02:14:17.491Z,-6.3
2019-01-05T02:15:07.561Z,-6.3
2019-01-05T02:15:57.611Z,-6.3
2019-01-05T02:16:47.906Z,-6.3
2019-01-05T02:17:37.996Z,-6.3
2019-01-05T02:18:27.770Z,-6.3
2019-01-05T02:19:17.556Z,-6.3
2019-01-05T02:20:07.618Z,-6.3
2019-01-05T02:20:57.678Z,-6.3
2019-01-05T02:21:48.003Z,-6.3
2019-01-05T02:22:38.328Z,-6.3
2019-01-05T02:23:28.118Z,-6.3
2019-01-05T02:24:18.456Z,-6.3
2019-01-05T02:25:08.545Z,-6.3
2019-01-05T02:25:58.563Z,-6.3
2019-01-05T02:26:48.623Z,-6.3
2019-01-05T02:27:38.660Z,-6.3
2019-01-05T02:28:28.756Z,-6.3
2019-01-05T02:29:18.240Z,-6.3
2019-01-05T02:30:08.609Z,-6.3
2019-01-05T02:30:58.652Z,-6.3
2019-01-05T02:31:48.730Z,-6.3
2019-01-05T02:32:38.485Z,-6.3
2019-01-05T02:33:28.805Z,-6.3
2019-01-05T02:34:19.178Z,-6.3
2019-01-05T02:35:09.210Z,-6.3
2019-01-05T02:35:59.267Z,-6.3
2019-01-05T02:36:49.032Z,-6.3
2019-01-05T02:37:39.091Z,-6.3
2019-01-05T02:38:28.875Z,-6.3
2019-01-05T02:39:19.540Z,-6.3
2019-01-05T02:40:09.545Z,-6.3
2019-01-05T02:40:59.321Z,-6.3
2019-01-05T02:41:49.116Z,-6.3
2019-01-05T02:42:39.718Z,-6.3
2019-01-05T02:43:29.767Z,-6.3
2019-01-05T02:44:19.568Z,-6.3
2019-01-05T02:45:09.903Z,-6.3
2019-01-05T02:45:59.655Z,-6.3
2019-01-05T02:46:49.706Z,-6.3
2019-01-05T02:47:40.044Z,-6.3
2019-01-05T02:48:29.829Z,-6.3
2019-01-05T02:49:20.157Z,-6.3
2019-01-05T02:50:10.205Z,-6.3
2019-01-05T02:50:59.717Z,-6.3
2019-01-05T02:51:50.320Z,-6.3
2019-01-05T02:52:40.101Z,-6.3
2019-01-05T02:53:30.428Z,-6.3
2019-01-05T02:54:19.948Z,-6.3
2019-01-05T02:55:10.000Z,-6.3
2019-01-05T02:56:00.611Z,-6.3
2019-01-05T02:56:50.393Z,-6.3
2019-01-05T02:57:40.844Z,-6.3
2019-01-05T02:58:30.511Z,-6.3
2019-01-05T02:59:20.831Z,-6.3
2019-01-05T03:00:10.338Z,-6.3
2019-01-05T03:01:01.230Z,-6.3
2019-01-05T03:01:50.720Z,-6.3
2019-01-05T03:02:41.050Z,-6.3
2019-01-05T03:03:30.561Z,-6.4
2019-01-05T03:04:20.606Z,-6.3
2019-01-05T03:05:11.220Z,-6.3
2019-01-05T03:06:01.530Z,-6.3
2019-01-05T03:06:50.795Z,-6.3
2019-01-05T03:07:41.108Z,-6.3
2019-01-05T03:08:31.474Z,-6.3
2019-01-05T03:09:21.246Z,-6.3
2019-01-05T03:10:11.287Z,-6.4
2019-01-05T03:11:01.340Z,-6.3
2019-01-05T03:11:51.684Z,-6.4
2019-01-05T03:12:41.753Z,-6.3
2019-01-05T03:13:31.558Z,-6.3
2019-01-05T03:14:21.900Z,-6.3
2019-01-05T03:15:11.900Z,-6.3
2019-01-05T03:16:01.952Z,-6.3
2019-01-05T03:16:51.794Z,-6.4
2019-01-05T03:17:42.075Z,-6.4
2019-01-05T03:18:32.151Z,-6.3
2019-01-05T03:19:22.196Z,-6.4
2019-01-05T03:20:11.689Z,-6.4
2019-01-05T03:21:02.303Z,-6.4
2019-01-05T03:21:52.640Z,-6.4
2019-01-05T03:22:42.189Z,-6.4
2019-01-05T03:23:32.506Z,-6.4
2019-01-05T03:24:21.986Z,-6.4
2019-01-05T03:25:12.091Z,-6.4
2019-01-05T03:26:02.373Z,-6.4
2019-01-05T03:26:52.156Z,-6.4
2019-01-05T03:27:42.474Z,-6.4
2019-01-05T03:28:32.544Z,-6.4
2019-01-05T03:29:22.869Z,-6.4
2019-01-05T03:30:12.690Z,-6.4
2019-01-05T03:31:03.031Z,-6.4
2019-01-05T03:31:53.076Z,-6.4
2019-01-05T03:32:43.202Z,-6.4
2019-01-05T03:33:33.174Z,-6.4
2019-01-05T03:34:23.214Z,-6.4
2019-01-05T03:35:12.999Z,-6.4
2019-01-05T03:36:02.781Z,-6.4
2019-01-05T03:36:53.372Z,-6.4
2019-01-05T03:37:43.446Z,-6.4
2019-01-05T03:38:33.496Z,-6.4
2019-01-05T03:39:23.604Z,-6.4
2019-01-05T03:40:13.603Z,-6.4
2019-01-05T03:41:03.128Z,-6.4
2019-01-05T03:41:53.724Z,-6.4
2019-01-05T03:42:43.491Z,-6.4
2019-01-05T03:43:33.838Z,-6.4
2019-01-05T03:44:23.625Z,-6.4
2019-01-05T03:45:13.964Z,-6.4
2019-01-05T03:46:03.993Z,-6.4
2019-01-05T03:46:54.046Z,-6.4
2019-01-05T03:47:43.855Z,-6.4
2019-01-05T03:48:34.172Z,-6.4
2019-01-05T03:49:24.210Z,-6.4
2019-01-05T03:50:14.032Z,-6.4
2019-01-05T03:51:04.335Z,-6.4
2019-01-05T03:51:54.116Z,-6.4
2019-01-05T03:52:44.455Z,-6.4
2019-01-05T03:53:34.224Z,-6.4
2019-01-05T03:54:24.557Z,-6.4
2019-01-05T03:55:14.694Z,-6.4
2019-01-05T03:56:04.412Z,-6.4
2019-01-05T03:56:54.472Z,-6.4
2019-01-05T03:57:44.801Z,-6.4
2019-01-05T03:58:34.855Z,-6.4
2019-01-05T03:59:24.907Z,-6.4
2019-01-05T04:00:14.968Z,-6.4
2019-01-05T04:01:05.044Z,-6.4
2019-01-05T04:01:55.079Z,-6.4
2019-01-05T04:02:45.126Z,-6.4
2019-01-05T04:03:35.182Z,-6.4
2019-01-05T04:04:24.966Z,-6.4
2019-01-05T04:05:15.319Z,-6.4
2019-01-05T04:06:04.827Z,-6.4
2019-01-05T04:06:55.431Z,-6.4
2019-01-05T04:07:45.481Z,-6.4
2019-01-05T04:08:35.526Z,-6.4
2019-01-05T04:09:25.317Z,-6.4
2019-01-05T04:10:15.093Z,-6.4
2019-01-05T04:11:05.147Z,-6.4
2019-01-05T04:11:55.472Z,-6.4
2019-01-05T04:12:45.543Z,-6.4
2019-01-05T04:13:35.863Z,-6.5
2019-01-05T04:14:25.660Z,-6.4
2019-01-05T04:15:15.976Z,-6.4
2019-01-05T04:16:05.761Z,-6.4
2019-01-05T04:16:55.816Z,-6.4
2019-01-05T04:17:46.156Z,-6.4
2019-01-05T04:18:36.201Z,-6.4
2019-01-05T04:19:26.264Z,-6.4
2019-01-05T04:20:15.762Z,-6.4
2019-01-05T04:21:06.111Z,-6.4
2019-01-05T04:21:56.432Z,-6.4
2019-01-05T04:22:46.493Z,-6.4
2019-01-05T04:23:36.295Z,-6.5
2019-01-05T04:24:26.608Z,-6.5
2019-01-05T04:25:16.718Z,-6.5
2019-01-05T04:26:06.754Z,-6.4
2019-01-05T04:26:56.779Z,-6.4
2019-01-05T04:27:46.826Z,-6.5
2019-01-05T04:28:36.625Z,-6.4
2019-01-05T04:29:26.948Z,-6.4
2019-01-05T04:30:16.992Z,-6.5
2019-01-05T04:31:07.050Z,-6.5
2019-01-05T04:31:56.291Z,-6.4
2019-01-05T04:32:47.180Z,-6.5
2019-01-05T04:33:37.220Z,-6.5
2019-01-05T04:34:27.292Z,-6.5
2019-01-05T04:35:17.345Z,-6.5
2019-01-05T04:36:07.743Z,-6.5
2019-01-05T04:36:57.503Z,-6.5
2019-01-05T04:37:47.228Z,-6.5
2019-01-05T04:38:37.290Z,-6.5
2019-01-05T04:39:27.627Z,-6.5
2019-01-05T04:40:17.680Z,-6.5
2019-01-05T04:41:07.743Z,-6.4
2019-01-05T04:41:57.782Z,-6.5
2019-01-05T04:42:47.849Z,-6.5
2019-01-05T04:43:37.928Z,-6.5
2019-01-05T04:44:27.691Z,-6.5
2019-01-05T04:45:18.020Z,-6.5
2019-01-05T05:02:37.201Z,-6.6
2019-01-05T05:03:27.521Z,-6.6
2019-01-05T05:04:17.314Z,-6.6
2019-01-05T05:05:07.628Z,-6.5
2019-01-05T05:05:57.683Z,-6.5
2019-01-05T05:06:47.750Z,-6.5
2019-01-05T05:07:38.029Z,-6.6
2019-01-05T05:08:27.571Z,-6.6
2019-01-05T05:09:17.638Z,-6.6
2019-01-05T05:10:07.968Z,-6.6
2019-01-05T05:10:57.747Z,-6.6
2019-01-05T05:11:48.092Z,-6.6
2019-01-05T05:12:38.143Z,-6.6
2019-01-05T05:13:27.902Z,-6.6
2019-01-05T05:14:18.249Z,-6.6
2019-01-05T05:15:08.300Z,-6.6
2019-01-05T05:15:58.365Z,-6.6
2019-01-05T05:16:47.898Z,-6.6
2019-01-05T05:17:38.469Z,-6.6
2019-01-05T05:18:28.517Z,-6.6
2019-01-05T05:19:18.040Z,-6.6
2019-01-05T05:20:08.657Z,-6.6
2019-01-05T05:20:58.700Z,-6.6
2019-01-05T05:21:48.756Z,-6.6
2019-01-05T05:22:39.067Z,-6.6
2019-01-05T05:23:28.887Z,-6.7
2019-01-05T05:24:18.657Z,-6.6
2019-01-05T05:25:08.991Z,-6.6
2019-01-05T05:25:59.034Z,-6.7
2019-01-05T05:26:48.785Z,-6.7
2019-01-05T05:27:39.144Z,-6.7
2019-01-05T05:28:29.220Z,-6.7
2019-01-05T05:29:19.279Z,-6.7
2019-01-05T05:30:09.056Z,-6.7
2019-01-05T05:30:59.391Z,-6.8
2019-01-05T05:31:49.133Z,-6.8
2019-01-05T05:32:39.207Z,-6.8
2019-01-05T05:33:29.552Z,-6.8
2019-01-05T05:34:19.603Z,-6.8
2019-01-05T05:35:09.371Z,-6.8
2019-01-05T05:35:59.434Z,-6.8
2019-01-05T05:36:49.774Z,-6.8
2019-01-05T05:37:39.552Z,-6.8
2019-01-05T05:38:29.896Z,-6.8
2019-01-05T05:39:19.946Z,-6.9
2019-01-05T05:40:09.463Z,-6.9
2019-01-05T05:40:59.506Z,-6.9
2019-01-05T05:41:50.358Z,-6.9
2019-01-05T05:42:39.898Z,-6.9
2019-01-05T05:43:30.213Z,-6.9
2019-01-05T05:44:20.283Z,-6.9
2019-01-05T05:45:10.343Z,-6.9
2019-01-05T05:46:00.403Z,-7
2019-01-05T05:46:50.188Z,-7
2019-01-05T05:47:40.506Z,-7
2019-01-05T05:48:30.288Z,-7.1
2019-01-05T05:49:20.634Z,-7.1
2019-01-05T05:50:10.711Z,-7.1
2019-01-05T05:51:00.454Z,-7.1
2019-01-05T05:51:50.814Z,-7.1
2019-01-05T05:52:40.576Z,-7.1
2019-01-05T05:53:30.912Z,-7.1
2019-01-05T05:54:20.683Z,-7.2
2019-01-05T05:55:11.015Z,-7.2
2019-01-05T05:56:01.067Z,-7.3
2019-01-05T05:56:50.846Z,-7.3
2019-01-05T05:57:40.912Z,-7.3
2019-01-05T05:58:31.240Z,-7.3
2019-01-05T05:59:21.293Z,-7.3
2019-01-05T06:00:11.350Z,-7.3
2019-01-05T06:01:01.418Z,-7.3
2019-01-05T06:01:51.185Z,-7.4
2019-01-05T06:02:41.527Z,-7.4
2019-01-05T06:03:31.580Z,-7.4
2019-01-05T06:04:21.667Z,-7.4
2019-01-05T06:05:11.419Z,-7.4
2019-01-05T06:06:01.745Z,-7.4
2019-01-05T06:06:51.534Z,-7.4
2019-01-05T06:07:41.320Z,-7.5
2019-01-05T06:08:31.910Z,-7.5
2019-01-05T06:09:21.972Z,-7.5
2019-01-05T06:10:12.021Z,-7.6
2019-01-05T06:11:02.129Z,-7.6
2019-01-05T06:11:51.874Z,-7.6
2019-01-05T06:12:42.199Z,-7.6
2019-01-05T06:13:31.434Z,-7.6
2019-01-05T06:14:22.029Z,-7.6
2019-01-05T06:15:12.372Z,-7.6
2019-01-05T06:16:01.865Z,-7.7
2019-01-05T06:16:52.198Z,-7.7
2019-01-05T06:17:42.247Z,-7.7
2019-01-05T06:18:32.316Z,-7.7
2019-01-05T06:19:22.653Z,-7.8
2019-01-05T06:20:12.430Z,-7.8
2019-01-05T06:21:02.761Z,-7.8
2019-01-05T06:21:52.543Z,-7.8
2019-01-05T06:22:42.862Z,-7.8
2019-01-05T06:23:32.646Z,-7.8
2019-01-05T06:24:22.722Z,-7.8
2019-01-05T06:25:12.831Z,-7.8
2019-01-05T06:26:03.094Z,-7.9
2019-01-05T06:26:53.142Z,-7.9
2019-01-05T06:27:42.659Z,-7.9
2019-01-05T06:28:33.262Z,-7.9
2019-01-05T06:29:23.319Z,-7.9
2019-01-05T06:30:13.352Z,-7.9
2019-01-05T06:31:03.154Z,-7.9
2019-01-05T06:31:53.484Z,-7.9
2019-01-05T06:32:43.547Z,-7.9
2019-01-05T06:33:33.607Z,-8
2019-01-05T06:34:23.969Z,-7.9
2019-01-05T06:35:13.785Z,-8
2019-01-05T06:36:03.787Z,-8
2019-01-05T06:36:53.827Z,-8
2019-01-05T06:37:43.604Z,-8
2019-01-05T06:38:33.941Z,-8
2019-01-05T06:39:24.011Z,-8.1
2019-01-05T06:40:14.053Z,-8.1
2019-01-05T06:41:04.103Z,-8.1
2019-01-05T06:41:54.170Z,-8.1
2019-01-05T06:42:44.211Z,-8
2019-01-05T06:43:34.283Z,-8.1
2019-01-05T06:44:24.623Z,-8.1
2019-01-05T06:45:14.638Z,-8.1
2019-01-05T06:46:04.451Z,-8
2019-01-05T06:46:54.497Z,-8.1
2019-01-05T06:47:44.283Z,-8
2019-01-05T06:48:34.333Z,-8
2019-01-05T06:49:24.435Z,-8
2019-01-05T06:50:15.019Z,-8
2019-01-05T06:51:04.516Z,-7.9
2019-01-05T06:51:54.840Z,-7.9
2019-01-05T06:52:44.612Z,-7.9
2019-01-05T06:53:34.671Z,-7.9
2019-01-05T06:54:24.730Z,-7.9
2019-01-05T06:55:15.060Z,-7.9
2019-01-05T06:56:04.840Z,-7.8
2019-01-05T06:56:54.920Z,-7.8
2019-01-05T06:57:44.950Z,-7.8
2019-01-05T06:58:35.015Z,-7.7
2019-01-05T06:59:24.788Z,-7.7
2019-01-05T07:00:15.375Z,-7.6
2019-01-05T07:01:05.455Z,-7.6
2019-01-05T07:01:55.507Z,-7.5
2019-01-05T07:02:45.572Z,-7.4
2019-01-05T07:03:35.347Z,-7.4
2019-01-05T07:04:25.684Z,-7.3
2019-01-05T07:05:15.722Z,-7.3
2019-01-05T07:06:05.530Z,-7.2
2019-01-05T07:06:55.579Z,-7.1
2019-01-05T07:07:45.917Z,-7.1
2019-01-05T07:08:35.420Z,-7
2019-01-05T07:09:25.759Z,-6.9
2019-01-05T07:10:16.329Z,-6.8
2019-01-05T07:11:05.872Z,-6.7
2019-01-05T07:11:55.922Z,-6.6
2019-01-05T07:12:46.252Z,-6.5
2019-01-05T07:13:36.299Z,-6.4
2019-01-05T07:14:26.122Z,-6.3
2019-01-05T07:15:16.144Z,-6.3
2019-01-05T07:16:06.469Z,-6.1
2019-01-05T07:16:56.519Z,-6
2019-01-05T07:17:46.588Z,-5.8
2019-01-05T07:18:36.653Z,-5.8
2019-01-05T07:19:26.438Z,-5.6
2019-01-05T07:20:16.760Z,-5.4
2019-01-05T07:21:06.549Z,-5.3
2019-01-05T07:21:56.861Z,-5.1
2019-01-05T07:22:46.659Z,-5
2019-01-05T07:23:36.969Z,-4.8
2019-01-05T07:24:27.046Z,-4.6
2019-01-05T07:25:16.816Z,-4.4
2019-01-05T07:26:07.448Z,-4.3
2019-01-05T07:26:57.203Z,-4
2019-01-05T07:27:46.988Z,-3.8
2019-01-05T07:28:37.319Z,-3.6
2019-01-05T07:29:26.828Z,-3.4
2019-01-05T07:30:17.423Z,-3.2
2019-01-05T07:31:07.491Z,-2.9
2019-01-05T07:31:57.266Z,-2.7
2019-01-05T07:32:47.615Z,-2.4
2019-01-05T07:33:37.383Z,-2.2
2019-01-05T07:34:27.729Z,-1.9
2019-01-05T07:35:17.490Z,-1.7
2019-01-05T07:36:07.833Z,-1.4
2019-01-05T07:36:57.888Z,-1.1
2019-01-05T07:37:47.942Z,-0.9
2019-01-05T07:38:38.003Z,-0.6
2019-01-05T07:39:28.093Z,-0.3
2019-01-05T07:40:17.845Z,0
2019-01-05T07:41:08.148Z,0.3
2019-01-05T07:41:57.942Z,0.6
2019-01-05T07:42:48.293Z,0.9
2019-01-05T07:43:38.082Z,1.2
2019-01-05T07:44:28.401Z,1.5
2019-01-05T07:45:18.180Z,1.9
2019-01-05T07:46:08.565Z,2.2
2019-01-05T07:46:58.575Z,2.5
2019-01-05T07:47:48.355Z,2.9
2019-01-05T07:48:38.699Z,3.3
2019-01-05T07:49:28.757Z,3.6
2019-01-05T07:50:18.807Z,4
2019-01-05T07:51:08.311Z,4.4
2019-01-05T07:51:58.634Z,4.8
2019-01-05T07:52:48.969Z,5.2
2019-01-05T07:53:39.026Z,5.6
2019-01-05T07:54:29.084Z,6
2019-01-05T07:55:19.154Z,6.4
2019-01-05T07:56:08.646Z,6.8
2019-01-05T07:56:58.986Z,7.3
2019-01-05T07:57:49.318Z,7.7
2019-01-05T07:58:39.371Z,8.1
2019-01-05T07:59:29.426Z,8.6
2019-01-05T08:00:19.213Z,9.1
2019-01-05T08:01:09.014Z,9.5
2019-01-05T08:01:59.109Z,9.9
2019-01-05T08:02:49.383Z,10.4
2019-01-05T08:03:39.454Z,2.6
2019-01-05T08:04:29.494Z,3
2019-01-05T08:05:19.547Z,33.2
2019-01-05T08:06:09.876Z,44.8
2019-01-05T08:07:00.191Z,44.7
2019-01-05T08:07:49.724Z,42.6
2019-01-05T08:08:40.059Z,40.8
2019-01-05T08:09:30.115Z,39.1
2019-01-05T08:10:20.168Z,38
2019-01-05T08:11:10.236Z,37.3
2019-01-05T08:12:00.280Z,36.7
2019-01-05T08:12:50.383Z,36.3
2019-01-05T08:13:40.136Z,35.9
2019-01-05T08:14:30.173Z,35.6
2019-01-05T08:15:20.233Z,35.3
2019-01-05T08:16:10.298Z,35
2019-01-05T08:17:00.353Z,34.8
2019-01-05T08:17:50.405Z,34.5
2019-01-05T08:18:40.450Z,34.3
2019-01-05T08:19:30.248Z,34.1
2019-01-05T08:20:20.575Z,33.9
2019-01-05T08:21:10.638Z,33.8
2019-01-05T08:22:01.212Z,33.6
2019-01-05T08:22:51.220Z,33.4
2019-01-05T08:23:40.808Z,33.3
2019-01-05T08:24:31.128Z,33.1
2019-01-05T08:25:20.920Z,33
2019-01-05T08:26:10.975Z,32.9
2019-01-05T08:27:01.335Z,32.9
2019-01-05T08:27:51.354Z,33.7
2019-01-05T08:28:41.415Z,38.8
2019-01-05T08:29:31.194Z,46.8
2019-01-05T08:30:21.520Z,51.7
2019-01-05T08:31:11.590Z,51.8
2019-01-05T08:32:01.642Z,55
2019-01-05T08:32:51.420Z,56
2019-01-05T08:33:41.747Z,56.1
2019-01-05T08:34:31.527Z,55.8
2019-01-05T08:35:21.865Z,55.1
2019-01-05T08:36:11.371Z,54.5
2019-01-05T08:37:01.429Z,54.1
2019-01-05T08:37:52.027Z,53.6
2019-01-05T08:38:41.798Z,53.3
2019-01-05T08:39:32.159Z,52.9
2019-01-05T08:40:22.199Z,52.6
2019-01-05T08:41:12.252Z,52.3
2019-01-05T08:42:02.426Z,52.1
2019-01-05T08:43:42.429Z,51.1
2019-01-05T08:44:32.476Z,50.8
2019-01-05T08:45:22.268Z,53.6
2019-01-05T08:46:12.326Z,53.1
2019-01-05T08:47:02.657Z,55.4
2019-01-05T08:47:52.718Z,57.2
2019-01-05T08:48:43.066Z,57.7
2019-01-05T08:49:32.270Z,57.3
2019-01-05T08:50:22.916Z,56.7
2019-01-05T08:51:12.936Z,56.4
2019-01-05T08:52:02.986Z,56.3
2019-01-05T08:52:52.806Z,56.4
2019-01-05T08:53:43.093Z,56.7
2019-01-05T08:54:33.156Z,56.9
2019-01-05T08:55:23.210Z,57
2019-01-05T08:56:13.268Z,57.1
2019-01-05T08:57:03.588Z,57.1
2019-01-05T08:57:53.388Z,57.2
2019-01-05T08:58:43.440Z,57.3
2019-01-05T08:59:33.495Z,57.4
2019-01-05T09:00:22.997Z,57.6
2019-01-05T09:01:13.611Z,57.7
2019-01-05T09:17:04.724Z,47.4
2019-01-05T09:17:54.429Z,46.6
2019-01-05T09:18:44.489Z,45.9
2019-01-05T09:19:34.539Z,45.3
2019-01-05T09:20:24.607Z,44.7
2019-01-05T09:21:14.369Z,44.3
2019-01-05T09:22:05.249Z,43.9
2019-01-05T09:22:54.814Z,43.8
2019-01-05T09:23:44.551Z,43.6
2019-01-05T09:24:34.604Z,43.5
2019-01-05T09:25:24.924Z,43.3
2019-01-05T09:26:14.707Z,43
2019-01-05T09:27:05.062Z,42.8
2019-01-05T09:27:54.829Z,42.7
2019-01-05T09:28:45.154Z,42.7
2019-01-05T09:29:35.214Z,42.6
2019-01-05T09:30:24.723Z,42.4
2019-01-05T09:31:15.326Z,42.2
2019-01-05T09:32:04.834Z,41.9
2019-01-05T09:32:55.163Z,41.7
2019-01-05T09:33:45.216Z,41.4
2019-01-05T09:34:35.554Z,41.4
2019-01-05T09:35:25.371Z,41.4
2019-01-05T09:36:15.673Z,41.4
2019-01-05T09:37:05.451Z,41.4
2019-01-05T09:37:55.513Z,41.3
2019-01-05T09:38:45.841Z,41.4
2019-01-05T09:39:35.399Z,41.5
2019-01-05T09:40:26.106Z,41.6
2019-01-05T09:41:16.013Z,41.7
2019-01-05T09:42:06.071Z,39.3
2019-01-05T09:42:56.163Z,37.9
2019-01-05T09:43:46.183Z,37.4
2019-01-05T09:44:35.955Z,37.1
2019-01-05T09:45:26.305Z,36.8
2019-01-05T09:46:15.815Z,36.6
2019-01-05T09:47:06.125Z,36.5
2019-01-05T09:47:56.195Z,36.4
2019-01-05T09:48:46.522Z,36.4
2019-01-05T09:49:36.586Z,36.4
2019-01-05T09:50:26.095Z,36.7
2019-01-05T09:51:16.425Z,42.3
2019-01-05T09:52:06.497Z,43.9
2019-01-05T09:52:56.544Z,43.9
2019-01-05T09:53:46.597Z,43.4
2019-01-05T09:54:36.387Z,42.9
2019-01-05T09:55:26.726Z,42.4
2019-01-05T09:56:16.772Z,41.8
2019-01-05T09:57:06.819Z,41.4
2019-01-05T09:57:57.132Z,40.8
2019-01-05T09:58:46.934Z,40.3
2019-01-05T09:59:37.350Z,39.8
2019-01-05T10:00:27.059Z,39.4
2019-01-05T10:01:17.105Z,39
2019-01-05T10:02:06.889Z,38.6
2019-01-05T10:02:57.014Z,38.2
2019-01-05T10:03:47.571Z,37.8
2019-01-05T10:04:37.354Z,37.4
2019-01-05T10:05:27.691Z,37.1
2019-01-05T10:06:17.764Z,36.8
2019-01-05T10:07:07.789Z,36.4
2019-01-05T10:07:57.842Z,36.1
2019-01-05T10:08:47.634Z,35.8
2019-01-05T10:09:37.406Z,35.4
2019-01-05T10:10:28.019Z,35.1
2019-01-05T10:11:17.798Z,34.8
2019-01-05T10:12:08.123Z,34.5
2019-01-05T10:12:58.156Z,34.2
2019-01-05T10:13:48.246Z,33.9
2019-01-05T10:14:38.021Z,33.6
2019-01-05T10:15:28.358Z,33.3
2019-01-05T10:16:18.409Z,33
2019-01-05T10:17:08.463Z,32.8
2019-01-05T10:17:57.981Z,32.6
2019-01-05T10:18:48.326Z,32.6
2019-01-05T10:19:38.637Z,32.5
2019-01-05T10:20:28.453Z,32.8
2019-01-05T10:21:18.748Z,33.3
2019-01-05T10:22:08.811Z,33.5
2019-01-05T10:22:59.123Z,33.7
2019-01-05T10:23:48.928Z,34
2019-01-05T10:24:38.440Z,34.6
2019-01-05T10:25:28.765Z,35.2
2019-01-05T10:26:19.108Z,35.6
2019-01-05T10:27:08.883Z,35.9
2019-01-05T10:27:58.995Z,36
2019-01-05T10:28:49.265Z,36.1
2019-01-05T10:29:39.330Z,36.1
2019-01-05T10:30:29.113Z,36.1
2019-01-05T10:31:19.430Z,36.1
2019-01-05T10:32:09.209Z,36
2019-01-05T10:32:59.037Z,36
2019-01-05T10:33:49.855Z,36.1
2019-01-05T10:34:39.406Z,34.8
2019-01-05T10:35:29.443Z,30.6
2019-01-05T10:36:19.768Z,30.8
2019-01-05T10:37:09.555Z,30.7
2019-01-05T10:37:59.942Z,30.6
2019-01-05T10:38:49.672Z,30.3
2019-01-05T10:39:40.002Z,30.2
2019-01-05T10:40:30.070Z,33.8
2019-01-05T10:41:19.559Z,41.7
2019-01-05T10:42:09.897Z,46.3
2019-01-05T10:42:59.662Z,46.8
2019-01-05T10:43:50.294Z,46.9
2019-01-05T10:44:40.067Z,46.8
2019-01-05T10:45:30.416Z,46.5
2019-01-05T10:46:20.456Z,46.1
2019-01-05T10:47:10.506Z,45.7
2019-01-05T10:48:00.574Z,45.3
2019-01-05T10:48:50.627Z,45.4
2019-01-05T10:49:40.432Z,45.7
2019-01-05T10:50:30.476Z,47.8
2019-01-05T10:51:20.528Z,47.4
2019-01-05T10:52:10.306Z,48.5
2019-01-05T10:53:00.639Z,49.7
2019-01-05T10:53:50.690Z,50.1
2019-01-05T10:54:40.741Z,50.1
2019-01-05T10:55:31.084Z,49.8
2019-01-05T10:56:20.597Z,49.8
2019-01-05T10:57:11.214Z,49.9
2019-01-05T10:58:00.707Z,50.2
2019-01-05T10:58:51.038Z,50.6
2019-01-05T10:59:40.833Z,50.9
2019-01-05T11:00:31.421Z,51.2
2019-01-05T11:01:21.259Z,51.4
2019-01-05T11:02:11.253Z,51.4
2019-01-05T11:03:01.589Z,51.4
2019-01-05T11:03:51.646Z,51.4
2019-01-05T11:04:41.698Z,51.6
2019-01-05T11:05:31.508Z,51.7
2019-01-05T11:06:21.550Z,51.9
2019-01-05T11:07:11.883Z,52.1
2019-01-05T11:08:01.648Z,52.2
2019-01-05T11:08:51.718Z,52.3
2019-01-05T11:10:31.833Z,52.4
2019-01-05T11:11:21.890Z,52.5
2019-01-05T11:12:12.219Z,52.6
2019-01-05T11:13:01.730Z,52.7
2019-01-05T11:13:52.329Z,52.8
2019-01-05T11:14:42.637Z,52.9
2019-01-05T11:15:32.440Z,52.9
2019-01-05T11:16:22.505Z,53
2019-01-05T11:17:12.555Z,53.1
2019-01-05T11:18:02.629Z,53.2
2019-01-05T11:18:52.665Z,53.3
2019-01-05T11:19:42.973Z,53.4
2019-01-05T11:20:37.375Z,53.4
2019-01-05T11:21:22.859Z,53.5
2019-01-05T11:22:12.389Z,53.6
2019-01-05T11:23:02.692Z,53.6
2019-01-05T11:23:52.744Z,53.7
2019-01-05T11:24:42.527Z,53.7
2019-01-05T11:25:33.129Z,53.8
2019-01-05T11:26:23.171Z,53.9
2019-01-05T11:27:12.695Z,53.9
2019-01-05T11:28:03.302Z,54
2019-01-05T11:28:53.090Z,54.1
2019-01-05T11:29:43.145Z,54.1
2019-01-05T11:30:33.199Z,54.2
2019-01-05T11:31:23.265Z,54.2
2019-01-05T11:32:13.040Z,54.3
2019-01-05T11:33:03.659Z,54.3
2019-01-05T11:33:53.686Z,54.4
2019-01-05T11:34:43.749Z,54.4
2019-01-05T11:35:33.809Z,54.5
2019-01-05T11:36:23.582Z,54.5
2019-01-05T11:37:13.364Z,54.6
2019-01-05T11:38:03.701Z,54.6
2019-01-05T11:38:54.049Z,54.7
2019-01-05T11:39:43.821Z,54.8
2019-01-05T11:40:33.911Z,54.8
2019-01-05T11:41:24.203Z,54.7
2019-01-05T11:42:14.002Z,54.7
2019-01-05T11:43:04.392Z,54.5
2019-01-05T11:43:54.173Z,54.4
2019-01-05T11:44:44.441Z,54.4
2019-01-05T11:45:35.076Z,54.4
2019-01-05T11:46:24.548Z,54.5
2019-01-05T11:47:14.598Z,54.6
2019-01-05T11:48:04.676Z,54.6
2019-01-05T11:48:54.726Z,54.7
2019-01-05T11:49:44.490Z,54.7
2019-01-05T11:50:34.553Z,54.8
2019-01-05T11:51:24.606Z,54.7
2019-01-05T11:52:14.959Z,54.8
2019-01-05T11:53:04.990Z,54.8
2019-01-05T11:53:54.858Z,54.9
2019-01-05T11:54:45.128Z,54.9
2019-01-05T11:55:35.155Z,54.9
2019-01-05T11:56:25.258Z,54.9
2019-01-05T11:57:15.300Z,55
2019-01-05T11:58:05.345Z,55
2019-01-05T11:58:55.117Z,55.1
2019-01-05T11:59:45.452Z,55.1
2019-01-05T12:00:35.281Z,55.1